Aérodrome :
LOGIN :

S'inscrire | Disclaimer

   EN    FR    IT 

 










Légende :    VFR   VFR Marginal   IFR   IFR Intensif   IFR Très Intensif
Visi : 
Plafond : 
>= 8 km
>= 3000ft
5 à 8 km
1000 à 3000 ft
1500m à 5 km
500 à 1000 ft
800 à 1500m
200 à 500 ft
< 800m
< 200 ft
Symboles :   Orages  Brouillard  Fortes neiges  Fortes précipitations  Vent > 20 kt
SIGMETs :   Divers  Orages  Givrage  Turbulence  Onde Orograph.  Cendres Volcan.






- Altitude de l'aérodrome : 464 ft
- Code IATA : EVX


LFOE - Evreux

DERNIER METAR :
  • 210630Z AUTO 05003KT 4400 BR FEW005 M01/M01 Q1041 TEMPO 0600 FZFG VV///

METARs EXPIRÉS :
  • 210600Z AUTO 05006KT 5000 BR NSC M01/M01 Q1041 TEMPO 0600 FZFG VV///
  • 210530Z AUTO 04004KT 5000 BR NSC 00/M01 Q1041 TEMPO 0600 FZFG VV///
  • 210500Z AUTO 04005KT 6000 BKN007 01/M00 Q1041
  • 210430Z AUTO 06006KT 7000 OVC007 01/00 Q1041
  • 210400Z AUTO 05007KT 7000 BKN007 01/01 Q1041

TAF AMD TAF LFOE
Valide du 21 à 05h jusqu'au 22 à 03h UTC


210503Z 2105/2203 05006KT 7000 BKN007
BECMG 2105/2107 3000 BR OVC003
TEMPO 2107/2109 0600 FZFG VV///
BECMG 2109/2111 7000 NSW BKN007
BECMG 2111/2112 CAVOK
TEMPO 2112/2118 04010G20KT
BECMG 2121/2124 VRB03KT
PROB30
TEMPO 2200/2203 4000 BR



MET'MAP, la Météo Aéronautique d'un coup d'oeil ! - Copyright ORBIFLY Décembre 2007 - Disclaimer

ORBIFLY MET'MAP TEAM :

Programmation & Développement : Alexandra Zaïnal
Sur une idée originale de : Baudouin d'Aumeries
Assistance à la programmation : Marc-Olivier Méhu
Soutien technique & logistique : Manuel Goepfert

Contact : metmap@orbifly.com




SOURCES & CREDITS :

   NOAA